»·PEaware :: N303GS L52-L88

N303GS :: L52-L88

FLIGHT INFORMATION

Flight Status: Arrived
Operator: Privately registered:
United States
More flights under this callsign
Pilot: Thomas C. (20495)
Aircraft: CESSNA 172 SKYHAWK
(C172)
More flights by this aircraft type
Origin: L52 Oceano Co
United States
Destination: L88 New Cuyama
United States
More flights between these airports :: More routes between these airports
Route:
File this flight plan on PilotEdge
Remarks:
Altitude:
(Current/Filed)
1,000ft
Speed:
(Current/Filed)
110kts
Departed: 22-Sep-18 11:45 AM
Arrived: 22-Sep-18 12:22 PM
Distance/Time
Traveled:
47nm/0:37
Distance/Time
To Go:
Arrived

Flight Plot

Page will automatically refresh every two minutes.


Map Options




Map Legend


Flown Route
Filed Route
Departure Airport
Arrival Airport
Navaid (VOR, NDB)
Fix

Horizontal Profiles

Position Reports

Time Latitude Longitude Heading Altitude Ground
Speed
22-Sep-18 11:20 35.103553 -120.624283 214 14ft 0kts
22-Sep-18 11:21 35.103553 -120.624283 214 14ft 0kts
22-Sep-18 11:22 35.103553 -120.624283 214 14ft 0kts
22-Sep-18 11:23 35.103553 -120.624283 214 14ft 0kts
22-Sep-18 11:24 35.103553 -120.624283 214 14ft 0kts
22-Sep-18 11:25 35.103553 -120.624283 214 14ft 0kts
22-Sep-18 11:26 35.103553 -120.624283 214 14ft 0kts
22-Sep-18 11:27 35.103553 -120.624283 214 14ft 0kts
22-Sep-18 11:28 35.103552 -120.624283 214 14ft 0kts
22-Sep-18 11:29 35.103552 -120.624283 214 14ft 0kts
22-Sep-18 11:30 35.103552 -120.624283 213 14ft 0kts
22-Sep-18 11:31 35.103552 -120.624283 213 14ft 0kts
22-Sep-18 11:32 35.103552 -120.624283 213 14ft 0kts
22-Sep-18 11:33 35.103552 -120.624283 213 14ft 0kts
22-Sep-18 11:34 35.103552 -120.624283 213 14ft 0kts
22-Sep-18 11:35 35.103552 -120.624283 213 14ft 0kts
22-Sep-18 11:36 35.103552 -120.624283 213 14ft 0kts
22-Sep-18 11:37 35.103552 -120.624283 213 14ft 0kts
22-Sep-18 11:38 35.103552 -120.624283 213 14ft 0kts
22-Sep-18 11:39 35.103552 -120.624283 213 14ft 0kts
22-Sep-18 11:40 35.103552 -120.624283 213 14ft 0kts
22-Sep-18 11:41 35.103300 -120.624021 122 14ft 6kts
22-Sep-18 11:42 35.102365 -120.624098 216 14ft 13kts
22-Sep-18 11:43 35.099795 -120.619946 121 16ft 17kts
22-Sep-18 11:44 35.099542 -120.619415 77 16ft 0kts
22-Sep-18 11:45 35.099542 -120.619415 77 16ft 0kts
22-Sep-18 11:46 35.099855 -120.619123 299 16ft 0kts
22-Sep-18 11:47 35.108536 -120.634934 307 449ft 78kts
22-Sep-18 11:48 35.116012 -120.621718 87 1291ft 77kts
22-Sep-18 11:49 35.113713 -120.595265 99 2090ft 79kts
22-Sep-18 11:50 35.109595 -120.568938 99 2880ft 79kts
22-Sep-18 11:51 35.105544 -120.543208 103 3668ft 74kts
22-Sep-18 11:52 35.097407 -120.522636 114 4405ft 64kts
22-Sep-18 11:53 35.090914 -120.500558 110 4951ft 74kts
22-Sep-18 11:54 35.081663 -120.476899 120 5545ft 79kts
22-Sep-18 11:55 35.071445 -120.453630 117 6138ft 77kts
22-Sep-18 11:56 35.062016 -120.431778 118 6638ft 79kts
22-Sep-18 11:57 35.052604 -120.407705 115 7151ft 80kts
22-Sep-18 11:58 35.042866 -120.383312 112 7429ft 82kts
22-Sep-18 11:59 35.034029 -120.356872 113 7499ft 92kts
22-Sep-18 12:00 35.023243 -120.327945 112 7600ft 98kts
22-Sep-18 12:01 35.011823 -120.295486 115 7475ft 104kts
22-Sep-18 12:02 35.000004 -120.263876 114 7444ft 102kts
22-Sep-18 12:03 34.988615 -120.233112 114 7443ft 97kts
22-Sep-18 12:04 34.977678 -120.203451 114 7444ft 95kts
22-Sep-18 12:05 34.966901 -120.174111 114 7444ft 94kts
22-Sep-18 12:06 34.955697 -120.143478 113 7370ft 97kts
22-Sep-18 12:07 34.945598 -120.115799 113 7488ft 91kts
22-Sep-18 12:08 34.935162 -120.087067 113 7486ft 94kts
22-Sep-18 12:09 34.924558 -120.057736 113 7485ft 94kts
22-Sep-18 12:10 34.928268 -120.027721 67 7485ft 94kts
22-Sep-18 12:11 34.938341 -119.998166 67 7485ft 94kts
22-Sep-18 12:12 34.948548 -119.968338 67 7393ft 104kts
22-Sep-18 12:13 34.961246 -119.931463 67 6834ft 128kts
22-Sep-18 12:14 34.975556 -119.890075 66 6136ft 137kts
22-Sep-18 12:15 34.984717 -119.847864 112 5260ft 132kts
22-Sep-18 12:16 34.966280 -119.811274 123 4405ft 124kts
22-Sep-18 12:17 34.950266 -119.775077 117 3533ft 122kts
22-Sep-18 12:18 34.936863 -119.740711 110 2787ft 111kts
22-Sep-18 12:19 34.927733 -119.706010 109 2942ft 107kts
22-Sep-18 12:20 34.917954 -119.676124 113 2724ft 81kts
22-Sep-18 12:21 34.913141 -119.651966 67 2567ft 57kts
22-Sep-18 12:22 34.926175 -119.650780 283 2546ft 70kts
22-Sep-18 12:23 34.934380 -119.671943 295 2340ft 71kts
22-Sep-18 12:24 34.940817 -119.687742 296 2167ft 34kts
22-Sep-18 12:25 34.942838 -119.691086 51 2150ft 2kts
22-Sep-18 12:26 34.942656 -119.690590 14 2152ft 0kts
22-Sep-18 12:27 34.942669 -119.690584 19 2152ft 0kts
22-Sep-18 12:28 34.942669 -119.690584 19 2152ft 0kts
22-Sep-18 12:29 34.942669 -119.690584 19 2152ft 0kts
22-Sep-18 12:30 34.942669 -119.690584 19 2152ft 0kts
22-Sep-18 12:31 34.942669 -119.690584 19 2152ft 0kts
22-Sep-18 12:32 34.942669 -119.690584 19 2152ft 0kts
22-Sep-18 12:33 34.942669 -119.690584 19 2152ft 0kts
22-Sep-18 12:34 34.942669 -119.690584 19 2152ft 0kts
22-Sep-18 12:35 34.942669 -119.690584 19 2152ft 0kts

Navigation Log

Ident Type
Flight plan parsing failed, navigation log unavailable